Time;durP1;ratioP1;P1;durP2;ratioP2;P2;SDS_P1;SDS_P2;PMS_P1;PMS_P2;Temp;Humidity;BMP_temperature;BMP_pressure;BME280_temperature;BME280_humidity;BME280_pressure;Samples;Min_cycle;Max_cycle;Signal;HPM_P1;HPM_P2
2023/06/01 00:00:14;;;;;;;5.40;4.70;;;;;;;18.75;44.65;156181.41;5008115;28;20520;-82
2023/06/01 00:02:42;;;;;;;6.90;4.43;;;;;;;18.73;44.62;156176.22;5024842;28;20503;-82
2023/06/01 00:05:09;;;;;;;6.50;4.93;;;;;;;18.64;45.20;156152.75;5025785;28;20441;-83
2023/06/01 00:07:36;;;;;;;5.27;4.67;;;;;;;18.59;45.59;156139.72;5009965;28;20506;-83
2023/06/01 00:10:03;;;;;;;5.97;4.47;;;;;;;18.41;45.77;156094.09;4992799;28;20480;-82
2023/06/01 00:12:29;;;;;;;6.00;4.43;;;;;;;18.38;45.79;156084.97;4992108;28;20461;-82
2023/06/01 00:14:57;;;;;;;5.73;4.80;;;;;;;18.36;45.81;156079.75;5025181;28;20480;-82
2023/06/01 00:17:24;;;;;;;5.37;4.87;;;;;;;18.34;45.98;156075.88;4990781;28;20462;-82
2023/06/01 00:19:52;;;;;;;4.97;4.13;;;;;;;18.29;45.94;156062.84;4988956;28;20438;-83
2023/06/01 00:22:20;;;;;;;6.23;4.23;;;;;;;18.27;46.46;156057.59;4990565;28;20465;-82
2023/06/01 00:24:46;;;;;;;6.73;4.60;;;;;;;18.30;46.32;156064.13;4988849;28;20505;-82
2023/06/01 00:27:12;;;;;;;5.87;4.77;;;;;;;18.23;46.51;156048.53;4996521;28;20681;-82
2023/06/01 00:29:39;;;;;;;7.17;4.33;;;;;;;18.13;46.38;156021.19;5008238;28;20472;-82
2023/06/01 00:32:07;;;;;;;7.40;4.80;;;;;;;18.04;46.99;155999.03;4990812;28;20456;-83
2023/06/01 00:34:33;;;;;;;4.97;4.57;;;;;;;17.95;47.10;155975.56;4989846;28;20801;-82
2023/06/01 00:37:01;;;;;;;4.87;4.33;;;;;;;17.89;47.41;155958.66;4971843;28;20869;-83
2023/06/01 00:39:28;;;;;;;4.90;4.23;;;;;;;17.85;47.33;155949.53;4990019;28;20623;-82
2023/06/01 00:41:54;;;;;;;6.70;4.70;;;;;;;17.78;47.51;155930.00;4975222;28;20457;-82
2023/06/01 00:44:21;;;;;;;4.70;4.00;;;;;;;17.66;47.45;155898.78;4991357;28;20446;-82
2023/06/01 00:46:47;;;;;;;6.60;4.30;;;;;;;17.58;47.79;155879.22;4989420;28;20505;-82
2023/06/01 00:49:14;;;;;;;6.40;4.27;;;;;;;17.53;47.81;155867.53;4989690;28;20450;-82
2023/06/01 00:51:40;;;;;;;6.43;5.20;;;;;;;17.49;48.12;155855.78;5006995;28;20485;-82
2023/06/01 00:54:09;;;;;;;5.00;4.50;;;;;;;17.48;48.15;155853.16;5008946;28;20495;-82
2023/06/01 00:56:36;;;;;;;4.57;4.10;;;;;;;17.42;48.48;155837.56;5008648;28;20451;-82
2023/06/01 00:59:03;;;;;;;4.50;3.93;;;;;;;17.34;48.62;155816.72;5007306;28;20444;-82
2023/06/01 01:01:31;;;;;;;5.40;4.13;;;;;;;17.29;48.82;155803.72;4990719;28;20460;-82
2023/06/01 01:04:00;;;;;;;7.00;4.17;;;;;;;17.23;48.96;155789.41;4991028;28;20968;-82
2023/06/01 01:06:32;;;;;;;4.73;3.80;;;;;;;17.19;49.17;155777.66;4971429;28;20523;-82
2023/06/01 01:09:09;;;;;;;5.20;4.60;;;;;;;17.11;49.47;155758.16;4987677;28;20431;-81
2023/06/01 01:11:38;;;;;;;4.90;4.40;;;;;;;17.11;49.39;155756.84;4987296;28;20482;-82
2023/06/01 01:14:09;;;;;;;4.60;4.10;;;;;;;17.09;49.83;155751.63;4971508;28;20450;-82
2023/06/01 01:16:41;;;;;;;5.17;3.87;;;;;;;17.08;49.81;155749.06;5003915;28;20449;-82
2023/06/01 01:19:16;;;;;;;5.23;4.37;;;;;;;17.07;49.55;155747.75;4971673;28;20960;-82
2023/06/01 01:25:36;;;;;;;5.87;3.73;;;;;;;16.85;50.01;155691.81;4988104;28;20461;-82
2023/06/01 01:28:24;;;;;;;5.10;4.10;;;;;;;16.75;50.41;155665.78;4999067;28;20441;-82
2023/06/01 01:30:51;;;;;;;5.80;4.43;;;;;;;16.79;50.40;155676.19;4987466;28;20521;-81
2023/06/01 01:33:19;;;;;;;5.80;4.87;;;;;;;16.79;50.69;155676.19;5003589;28;20453;-81
2023/06/01 01:35:46;;;;;;;5.90;4.50;;;;;;;16.78;50.63;155673.59;5003433;28;20984;-81
2023/06/01 01:38:12;;;;;;;4.87;4.20;;;;;;;16.77;50.20;155670.97;4987832;28;20438;-81
2023/06/01 01:40:39;;;;;;;3.80;3.30;;;;;;;16.76;50.62;155668.38;5008138;28;20432;-81
2023/06/01 01:43:06;;;;;;;5.90;3.77;;;;;;;16.74;50.19;155663.16;5006898;28;20515;-81
2023/06/01 01:45:34;;;;;;;5.20;4.70;;;;;;;16.71;50.33;155654.03;4990650;28;20457;-81
2023/06/01 01:48:06;;;;;;;6.70;4.17;;;;;;;16.68;50.24;155647.53;5023177;28;20795;-81
2023/06/01 01:50:37;;;;;;;4.03;3.63;;;;;;;16.62;50.32;155631.97;5008758;28;20894;-81
2023/06/01 01:53:05;;;;;;;5.73;4.40;;;;;;;16.49;50.63;155598.09;5026908;28;20968;-81
2023/06/01 01:55:34;;;;;;;5.40;4.03;;;;;;;16.45;50.65;155588.97;4994468;28;21121;-81
2023/06/01 01:58:02;;;;;;;4.40;3.97;;;;;;;16.43;50.79;155582.47;5010027;28;20845;-82
2023/06/01 02:00:30;;;;;;;4.40;3.80;;;;;;;16.49;50.56;155598.09;4994071;28;20447;-81
2023/06/01 02:02:58;;;;;;;4.70;4.17;;;;;;;16.49;50.64;155596.78;4993630;28;20534;-82
2023/06/01 02:05:24;;;;;;;5.43;4.30;;;;;;;16.60;50.59;155626.72;4994066;28;20807;-82
2023/06/01 02:07:51;;;;;;;6.03;4.20;;;;;;;16.60;50.08;155626.72;4977865;28;20444;-82
2023/06/01 02:10:18;;;;;;;5.60;3.90;;;;;;;16.65;50.22;155639.78;4991015;28;20493;-82
2023/06/01 02:12:45;;;;;;;5.50;3.77;;;;;;;16.74;50.04;155661.88;4990671;28;20482;-82
2023/06/01 02:15:11;;;;;;;4.03;3.50;;;;;;;16.81;49.72;155681.38;4984028;28;20461;-81
2023/06/01 02:17:40;;;;;;;6.00;4.50;;;;;;;16.87;49.95;155695.69;4987856;28;20816;-82
2023/06/01 02:20:10;;;;;;;6.23;4.10;;;;;;;16.85;49.82;155691.81;4971323;28;20461;-82
2023/06/01 02:22:37;;;;;;;5.67;4.87;;;;;;;16.91;49.40;155706.13;4987739;28;20546;-82
2023/06/01 02:25:04;;;;;;;5.20;4.50;;;;;;;16.94;49.57;155715.19;4973314;28;20435;-82
2023/06/01 02:27:31;;;;;;;6.80;4.50;;;;;;;16.94;49.93;155715.19;4988003;28;20451;-82
2023/06/01 02:29:58;;;;;;;4.40;4.00;;;;;;;16.92;49.67;155708.69;5026271;28;20468;-82
2023/06/01 02:32:25;;;;;;;5.13;3.87;;;;;;;16.85;49.97;155691.81;4995521;28;20465;-82
2023/06/01 02:34:51;;;;;;;6.47;4.30;;;;;;;16.85;49.63;155691.81;5023232;28;20492;-82
2023/06/01 02:37:19;;;;;;;5.20;4.13;;;;;;;16.74;50.13;155663.16;5006667;28;20460;-82
2023/06/01 02:39:47;;;;;;;4.53;4.13;;;;;;;16.63;50.37;155634.53;4974095;28;20455;-82
2023/06/01 02:42:13;;;;;;;5.40;3.93;;;;;;;16.54;50.73;155611.16;5023099;28;20438;-80
2023/06/01 02:44:40;;;;;;;4.30;3.90;;;;;;;16.46;51.24;155590.28;5006438;28;20444;-81
2023/06/01 02:47:07;;;;;;;4.20;3.80;;;;;;;16.40;51.15;155574.66;4990147;28;20457;-81
2023/06/01 02:49:34;;;;;;;4.40;4.00;;;;;;;16.37;50.97;155566.84;5010748;28;20977;-82
2023/06/01 02:52:01;;;;;;;6.00;3.80;;;;;;;16.29;51.14;155546.06;4970795;28;20919;-82
2023/06/01 02:54:29;;;;;;;4.60;4.20;;;;;;;16.23;51.30;155531.75;5003585;28;20494;-81
2023/06/01 02:56:56;;;;;;;5.30;4.67;;;;;;;16.21;51.83;155525.25;4972779;28;20457;-82
2023/06/01 02:59:29;;;;;;;4.50;4.10;;;;;;;16.16;51.76;155512.25;5006734;28;20506;-82
2023/06/01 03:02:00;;;;;;;6.70;4.07;;;;;;;16.12;52.57;155501.88;4988832;28;20460;-82
2023/06/01 03:04:28;;;;;;;8.80;4.37;;;;;;;16.07;52.80;155490.13;4973233;28;20458;-82
2023/06/01 03:06:57;;;;;;;4.13;3.73;;;;;;;16.01;52.58;155473.25;4991302;28;21023;-81
2023/06/01 03:09:34;;;;;;;5.53;4.07;;;;;;;15.98;52.73;155465.44;5002819;28;20573;-82
2023/06/01 03:12:20;;;;;;;7.40;4.43;;;;;;;15.93;53.47;155452.44;4966022;28;20496;-81
2023/06/01 03:14:47;;;;;;;7.10;4.10;;;;;;;15.92;53.46;155449.81;4971533;28;20441;-82
2023/06/01 03:17:14;;;;;;;4.37;3.80;;;;;;;15.87;52.99;155436.81;4972112;28;20456;-82
2023/06/01 03:19:40;;;;;;;4.50;3.60;;;;;;;15.86;53.19;155434.25;4969990;28;20480;-82
2023/06/01 03:22:16;;;;;;;6.40;4.80;;;;;;;15.84;53.25;155431.63;4986617;28;20453;-82
2023/06/01 03:24:49;;;;;;;5.00;4.40;;;;;;;15.82;53.33;155425.13;4986413;28;20449;-82
2023/06/01 03:27:15;;;;;;;3.97;3.60;;;;;;;15.79;53.74;155418.63;4990151;28;20461;-82
2023/06/01 03:29:42;;;;;;;9.30;4.10;;;;;;;15.74;53.70;155404.34;5022035;28;20452;-82
2023/06/01 03:32:09;;;;;;;6.70;4.13;;;;;;;15.72;53.82;155400.47;4989170;28;20507;-82
2023/06/01 03:34:37;;;;;;;6.27;4.17;;;;;;;15.70;54.35;155395.22;5021656;28;20712;-82
2023/06/01 03:37:04;;;;;;;4.40;4.00;;;;;;;15.68;54.13;155390.03;4989668;28;20518;-82
2023/06/01 03:39:33;;;;;;;5.13;4.40;;;;;;;15.65;54.33;155382.22;4987980;28;20466;-82
2023/06/01 03:42:02;;;;;;;5.20;4.30;;;;;;;15.63;54.51;155375.72;4970044;28;20854;-82
2023/06/01 03:44:28;;;;;;;6.10;4.27;;;;;;;15.62;54.58;155373.16;4971261;28;20449;-82
2023/06/01 03:46:55;;;;;;;5.63;3.93;;;;;;;15.56;54.74;155357.56;4986106;28;20466;-81
2023/06/01 03:49:21;;;;;;;5.67;4.20;;;;;;;15.56;55.14;155358.84;4969873;28;20445;-81
2023/06/01 03:51:48;;;;;;;5.40;3.80;;;;;;;15.53;55.03;155351.06;4969704;28;20484;-81
2023/06/01 03:54:15;;;;;;;4.93;4.23;;;;;;;15.52;55.76;155348.44;4985879;28;20479;-82
2023/06/01 03:56:42;;;;;;;4.20;3.50;;;;;;;15.49;55.77;155340.63;5006739;28;20447;-82
2023/06/01 03:59:10;;;;;;;5.43;4.47;;;;;;;15.47;55.63;155335.44;5021745;28;20439;-82
2023/06/01 04:01:39;;;;;;;5.00;4.10;;;;;;;15.53;56.27;155349.75;4969904;28;20820;-82
2023/06/01 04:04:08;;;;;;;4.17;3.77;;;;;;;15.54;56.22;155353.63;4998950;28;20802;-82
2023/06/01 04:06:36;;;;;;;6.67;3.67;;;;;;;15.54;56.20;155352.38;4997171;28;20537;-82
2023/06/01 04:09:06;;;;;;;5.27;4.17;;;;;;;15.65;56.71;155382.22;5008698;28;20451;-82
2023/06/01 04:11:33;;;;;;;5.40;3.87;;;;;;;15.59;56.86;155365.34;4995192;28;20517;-82
2023/06/01 04:14:00;;;;;;;5.23;3.50;;;;;;;15.59;57.19;155365.34;5011657;28;20506;-82
2023/06/01 04:16:29;;;;;;;4.30;3.90;;;;;;;15.72;57.08;155400.47;4988487;28;20451;-82
2023/06/01 04:18:55;;;;;;;6.73;4.20;;;;;;;15.89;56.69;155443.31;4990298;28;20439;-82
2023/06/01 04:21:25;;;;;;;5.53;3.93;;;;;;;16.03;56.47;155479.75;4988321;28;20448;-82
2023/06/01 04:23:52;;;;;;;5.50;4.60;;;;;;;16.16;56.32;155512.25;5004761;28;20437;-82
2023/06/01 04:26:21;;;;;;;5.27;4.10;;;;;;;16.29;55.83;155546.06;4988235;28;20465;-83
2023/06/01 04:28:48;;;;;;;6.67;4.23;;;;;;;16.41;55.80;155577.28;4993416;28;20823;-82
2023/06/01 04:31:17;;;;;;;6.40;4.07;;;;;;;16.54;55.65;155611.16;4991160;28;20483;-82
2023/06/01 04:33:52;;;;;;;4.33;3.93;;;;;;;16.71;55.85;155655.34;5007631;28;20443;-82
2023/06/01 04:36:21;;;;;;;4.57;3.50;;;;;;;16.90;54.83;155704.81;4975441;28;20866;-82
2023/06/01 04:38:51;;;;;;;5.63;4.23;;;;;;;17.05;54.60;155742.53;4991181;28;20536;-82
2023/06/01 04:41:19;;;;;;;4.07;3.67;;;;;;;17.16;54.05;155769.84;4974841;28;20553;-83
2023/06/01 04:43:51;;;;;;;5.40;3.80;;;;;;;17.32;53.36;155811.50;4991334;28;20451;-82
2023/06/01 04:46:19;;;;;;;4.43;4.03;;;;;;;17.49;53.28;155855.78;4991342;28;20850;-83
2023/06/01 04:48:47;;;;;;;6.33;3.60;;;;;;;17.72;52.95;155915.69;4990805;28;21130;-83
2023/06/01 04:51:19;;;;;;;6.70;4.50;;;;;;;18.02;52.65;155992.53;5024095;28;21011;-83
2023/06/01 04:53:49;;;;;;;5.17;4.20;;;;;;;18.33;53.02;156071.94;5009266;28;20429;-83
2023/06/01 04:56:16;;;;;;;5.40;3.60;;;;;;;18.53;51.51;156124.13;5009179;28;20548;-82
2023/06/01 04:58:44;;;;;;;3.93;3.53;;;;;;;18.73;51.33;156176.22;5023759;28;20516;-82
2023/06/01 05:01:13;;;;;;;5.30;4.57;;;;;;;18.79;50.74;156191.84;4990873;28;20948;-83
2023/06/01 05:03:40;;;;;;;7.10;4.00;;;;;;;18.95;50.99;156233.56;4974460;28;20988;-83
2023/06/01 05:06:08;;;;;;;4.80;4.30;;;;;;;19.06;49.60;156260.91;5022761;28;20453;-81
2023/06/01 05:08:35;;;;;;;6.23;3.77;;;;;;;19.15;49.84;156284.34;4990874;28;20445;-83
2023/06/01 05:11:02;;;;;;;4.43;4.00;;;;;;;19.26;49.49;156313.03;4987170;28;20474;-82
2023/06/01 05:13:29;;;;;;;4.20;3.80;;;;;;;19.35;49.33;156336.50;4971418;28;20489;-82
2023/06/01 05:15:56;;;;;;;4.27;3.87;;;;;;;19.56;48.30;156390.00;4987379;28;20558;-82
2023/06/01 05:18:22;;;;;;;4.70;4.30;;;;;;;19.72;47.86;156431.72;4989243;28;20442;-82
2023/06/01 05:20:49;;;;;;;4.87;4.37;;;;;;;19.89;47.11;156476.03;4971065;28;20477;-81
2023/06/01 05:23:17;;;;;;;4.87;4.37;;;;;;;19.99;48.30;156502.09;4987397;28;20450;-81
2023/06/01 05:25:43;;;;;;;5.97;4.40;;;;;;;20.00;46.81;156504.72;5022111;28;20999;-81
2023/06/01 05:28:10;;;;;;;4.13;3.70;;;;;;;20.01;44.74;156507.34;4988596;28;20801;-81
2023/06/01 05:30:39;;;;;;;4.50;4.10;;;;;;;20.02;47.25;156509.91;4955367;28;20523;-81
2023/06/01 05:33:06;;;;;;;4.40;4.00;;;;;;;20.14;47.44;156541.25;5004217;28;20476;-82
2023/06/01 05:35:32;;;;;;;7.70;4.30;;;;;;;20.26;49.46;156571.25;4988184;28;20446;-81
2023/06/01 05:37:59;;;;;;;4.33;3.93;;;;;;;20.53;49.58;156643.03;4988170;28;20458;-81
2023/06/01 05:40:27;;;;;;;4.23;3.60;;;;;;;20.74;48.72;156695.19;4988305;28;20576;-82
2023/06/01 05:42:54;;;;;;;4.70;4.30;;;;;;;20.76;49.59;156700.44;4988297;28;20442;-82
2023/06/01 05:45:21;;;;;;;5.90;4.33;;;;;;;20.77;48.80;156703.03;4971884;28;20540;-82
2023/06/01 05:47:48;;;;;;;4.50;4.10;;;;;;;20.92;46.12;156742.16;5004367;28;20447;-82
2023/06/01 05:50:14;;;;;;;4.63;4.10;;;;;;;20.94;48.66;156747.41;4971683;28;20452;-83
2023/06/01 05:52:42;;;;;;;8.43;4.97;;;;;;;20.97;49.00;156756.50;4972864;28;20502;-82
2023/06/01 05:55:09;;;;;;;5.57;4.27;;;;;;;21.14;49.07;156799.63;5004194;28;20447;-82
2023/06/01 05:57:37;;;;;;;4.40;3.77;;;;;;;21.26;48.12;156830.94;4992651;28;20501;-82
2023/06/01 06:00:08;;;;;;;5.17;3.90;;;;;;;21.37;46.92;156859.66;4990758;28;20461;-82
2023/06/01 06:02:42;;;;;;;10.50;4.57;;;;;;;21.58;48.05;156914.47;4990668;28;20824;-82
2023/06/01 06:05:09;;;;;;;8.03;5.67;;;;;;;21.75;47.87;156957.59;4992475;28;20442;-82
2023/06/01 06:07:36;;;;;;;6.60;5.40;;;;;;;21.96;47.79;157011.16;5007216;28;20516;-82
2023/06/01 06:10:03;;;;;;;8.97;5.87;;;;;;;22.02;48.23;157028.16;5006832;28;20473;-83
2023/06/01 06:12:30;;;;;;;6.00;5.20;;;;;;;21.91;46.85;156998.09;4991334;28;20481;-82
2023/06/01 06:14:58;;;;;;;7.57;6.60;;;;;;;21.87;48.31;156987.69;5007172;28;20472;-82
2023/06/01 06:17:24;;;;;;;8.03;5.93;;;;;;;22.03;48.17;157029.47;4992232;28;20527;-83
2023/06/01 06:19:51;;;;;;;7.80;6.10;;;;;;;22.02;47.75;157026.84;5007071;28;20815;-83
2023/06/01 06:22:18;;;;;;;6.70;5.87;;;;;;;22.22;46.35;157079.06;4990656;28;20496;-83
2023/06/01 06:24:44;;;;;;;8.80;6.03;;;;;;;22.29;47.45;157097.38;4992595;28;20445;-83
2023/06/01 06:27:11;;;;;;;9.20;5.13;;;;;;;22.04;45.63;157033.38;5023242;28;20449;-83
2023/06/01 06:29:38;;;;;;;7.60;5.67;;;;;;;21.99;45.19;157019.00;5022514;28;20453;-83
2023/06/01 06:32:07;;;;;;;5.67;5.10;;;;;;;22.05;47.30;157034.69;5022676;28;20490;-83
2023/06/01 06:34:35;;;;;;;6.20;5.60;;;;;;;22.37;46.64;157118.28;4991951;28;20813;-83
2023/06/01 06:37:03;;;;;;;7.00;5.97;;;;;;;22.45;45.03;157140.44;5006026;28;20450;-83
2023/06/01 06:39:29;;;;;;;9.40;6.17;;;;;;;22.53;45.43;157160.03;5023442;28;20594;-83
2023/06/01 06:41:56;;;;;;;7.00;5.93;;;;;;;22.73;45.47;157212.34;5022729;28;20617;-83
2023/06/01 06:44:22;;;;;;;7.60;5.13;;;;;;;22.81;44.58;157231.94;5006748;28;20446;-83
2023/06/01 06:46:49;;;;;;;6.83;4.90;;;;;;;22.97;44.95;157275.09;5022179;28;20453;-83
2023/06/01 06:49:18;;;;;;;6.87;5.10;;;;;;;23.25;44.11;157345.63;4991847;28;20512;-83
2023/06/01 06:51:44;;;;;;;5.63;4.80;;;;;;;23.48;44.16;157407.09;5022399;28;20996;-83
2023/06/01 06:54:11;;;;;;;6.03;5.27;;;;;;;23.32;42.79;157363.94;4991911;28;20450;-84
2023/06/01 06:56:38;;;;;;;5.97;5.30;;;;;;;23.19;43.36;157329.97;5006043;28;20512;-83
2023/06/01 06:59:04;;;;;;;5.73;4.90;;;;;;;23.33;43.03;157366.53;5023105;28;20446;-83
2023/06/01 07:01:31;;;;;;;4.93;4.53;;;;;;;23.26;42.81;157348.25;5010989;28;20456;-83
2023/06/01 07:03:57;;;;;;;8.00;5.43;;;;;;;23.39;42.95;157382.28;4983240;28;20446;-83
2023/06/01 07:06:25;;;;;;;9.20;5.60;;;;;;;23.50;42.22;157411.03;4971702;28;20509;-83
2023/06/01 07:08:52;;;;;;;8.13;4.90;;;;;;;23.72;41.94;157468.56;4986487;28;20514;-83
2023/06/01 07:11:19;;;;;;;7.07;5.50;;;;;;;23.77;41.56;157480.31;4990254;28;20513;-83
2023/06/01 07:13:46;;;;;;;5.07;4.57;;;;;;;23.81;41.40;157492.06;5005949;28;20874;-83
2023/06/01 07:16:12;;;;;;;6.00;4.53;;;;;;;23.94;41.64;157526.06;4989673;28;20453;-83
2023/06/01 07:18:39;;;;;;;5.83;4.87;;;;;;;24.03;42.05;157549.63;4989919;28;20448;-83
2023/06/01 07:21:06;;;;;;;5.83;5.27;;;;;;;24.37;41.31;157637.28;4991407;28;20909;-83
2023/06/01 07:23:34;;;;;;;6.20;5.53;;;;;;;24.42;40.62;157649.03;5005657;28;20783;-84
2023/06/01 07:26:00;;;;;;;5.50;5.00;;;;;;;24.47;40.40;157662.13;4990644;28;20442;-84
2023/06/01 07:28:28;;;;;;;5.73;5.03;;;;;;;24.27;41.09;157609.81;4997690;28;20440;-83
2023/06/01 07:30:54;;;;;;;5.33;4.83;;;;;;;24.33;40.43;157625.53;5008546;28;20892;-84
2023/06/01 07:33:22;;;;;;;7.00;5.00;;;;;;;24.18;40.37;157588.91;4992439;28;20464;-83
2023/06/01 07:35:52;;;;;;;5.60;4.77;;;;;;;24.46;39.65;157659.53;5025502;28;20447;-84
2023/06/01 07:38:19;;;;;;;6.23;5.40;;;;;;;24.60;40.15;157696.13;5000809;28;20437;-83
2023/06/01 07:40:47;;;;;;;6.73;4.80;;;;;;;24.78;40.44;157743.25;4988819;28;20444;-83
2023/06/01 07:43:14;;;;;;;5.30;4.80;;;;;;;24.90;40.11;157774.69;4990290;28;20480;-84
2023/06/01 07:45:41;;;;;;;20.30;5.10;;;;;;;25.13;39.57;157834.84;4990610;28;20536;-84
2023/06/01 07:48:07;;;;;;;8.17;5.00;;;;;;;25.30;39.74;157879.38;4988131;28;20444;-84
2023/06/01 07:50:34;;;;;;;7.90;6.43;;;;;;;25.40;38.19;157904.22;4989055;28;20548;-84
2023/06/01 07:53:01;;;;;;;6.03;5.37;;;;;;;24.99;38.83;157798.25;4990335;28;20474;-84
2023/06/01 07:55:27;;;;;;;6.90;4.97;;;;;;;24.94;38.89;157783.84;4990986;28;20445;-84
2023/06/01 07:57:55;;;;;;;8.00;6.47;;;;;;;24.70;38.96;157722.31;4988802;28;20439;-84
2023/06/01 08:00:22;;;;;;;12.40;5.73;;;;;;;24.81;39.88;157751.13;4998687;28;20518;-83
2023/06/01 08:02:49;;;;;;;7.30;5.00;;;;;;;24.92;39.43;157778.59;5008996;28;20483;-84
2023/06/01 08:05:18;;;;;;;6.20;5.60;;;;;;;25.31;38.69;157881.97;4991702;28;20782;-83
2023/06/01 08:07:45;;;;;;;8.67;5.10;;;;;;;25.52;38.33;157934.41;5004742;28;20451;-84
2023/06/01 08:10:13;;;;;;;8.17;5.47;;;;;;;25.63;38.59;157963.19;4989871;28;20474;-84
2023/06/01 08:12:40;;;;;;;8.33;5.77;;;;;;;25.80;37.78;158007.69;4989808;28;20517;-84
2023/06/01 08:15:10;;;;;;;6.00;5.20;;;;;;;25.78;37.31;158002.47;4989871;28;20446;-84
2023/06/01 08:17:37;;;;;;;5.33;4.83;;;;;;;25.54;38.14;157940.94;4989834;28;20548;-84
2023/06/01 08:20:08;;;;;;;5.83;5.00;;;;;;;25.70;38.19;157981.50;4990169;28;20444;-84
2023/06/01 08:22:34;;;;;;;6.47;5.40;;;;;;;25.86;37.80;158023.41;4987923;28;20569;-84
2023/06/01 08:25:01;;;;;;;7.30;6.60;;;;;;;25.70;38.19;157981.50;4989869;28;20441;-84
2023/06/01 08:27:28;;;;;;;7.40;5.63;;;;;;;25.69;37.46;157980.19;4988173;28;20449;-84
2023/06/01 08:29:55;;;;;;;6.40;5.80;;;;;;;25.78;37.54;158002.47;4992073;28;20777;-85
2023/06/01 08:32:22;;;;;;;6.17;5.63;;;;;;;25.79;37.32;158005.03;5005909;28;20496;-84
2023/06/01 08:34:49;;;;;;;6.87;5.70;;;;;;;25.63;37.70;157963.19;5007889;28;20956;-84
2023/06/01 08:37:16;;;;;;;6.80;6.20;;;;;;;25.57;37.26;157948.78;4991150;28;20543;-84
2023/06/01 08:39:43;;;;;;;6.70;5.60;;;;;;;25.53;38.34;157936.97;5024235;28;20987;-84
2023/06/01 08:42:12;;;;;;;10.00;6.00;;;;;;;25.52;37.30;157935.72;5007711;28;20886;-84
2023/06/01 08:44:40;;;;;;;6.70;5.93;;;;;;;25.26;38.35;157867.56;5009110;28;20502;-84
2023/06/01 08:47:08;;;;;;;7.23;6.53;;;;;;;25.39;37.85;157902.91;5008263;28;20453;-84
2023/06/01 08:49:37;;;;;;;6.63;6.03;;;;;;;25.11;38.50;157829.63;5024005;28;20444;-84
2023/06/01 08:52:09;;;;;;;6.23;5.63;;;;;;;25.19;38.72;157850.59;5023687;28;20440;-85
2023/06/01 08:54:35;;;;;;;8.77;5.80;;;;;;;25.38;38.35;157900.31;5007417;28;20437;-84
2023/06/01 08:57:07;;;;;;;7.00;6.20;;;;;;;25.20;39.01;157853.22;5023649;28;20487;-84
2023/06/01 08:59:34;;;;;;;7.07;6.47;;;;;;;25.08;38.44;157821.78;5007076;28;20433;-84
2023/06/01 09:02:01;;;;;;;8.00;6.20;;;;;;;24.95;39.39;157787.75;5008829;28;20457;-85
2023/06/01 09:04:30;;;;;;;6.50;5.90;;;;;;;25.42;39.02;157910.75;4990570;28;20440;-85
2023/06/01 09:06:58;;;;;;;6.60;5.90;;;;;;;25.86;38.38;158023.41;5007446;28;20446;-85
2023/06/01 09:09:24;;;;;;;8.30;5.90;;;;;;;25.82;38.38;158012.91;5000606;28;20536;-84
2023/06/01 09:12:19;;;;;;;8.47;6.60;;;;;;;25.62;38.22;157960.56;4969659;28;20969;-85
2023/06/01 09:14:45;;;;;;;8.03;6.70;;;;;;;25.55;38.49;157942.25;5000687;28;20446;-85
2023/06/01 09:17:14;;;;;;;6.57;6.00;;;;;;;25.50;38.07;157930.44;4969863;28;20449;-84
2023/06/01 09:19:44;;;;;;;7.00;6.30;;;;;;;25.22;38.73;157857.13;5001247;28;20525;-84
2023/06/01 09:22:13;;;;;;;8.40;6.30;;;;;;;24.88;39.96;157769.47;4968233;28;20464;-85
2023/06/01 09:24:40;;;;;;;7.40;6.70;;;;;;;24.91;40.33;157777.31;5000760;28;20822;-84
2023/06/01 09:27:08;;;;;;;7.13;6.43;;;;;;;25.04;39.21;157810.00;4984712;28;20450;-84
2023/06/01 09:29:34;;;;;;;6.90;5.97;;;;;;;24.91;39.96;157776.00;4999590;28;20456;-84
2023/06/01 09:32:01;;;;;;;7.43;6.40;;;;;;;25.15;39.64;157838.81;5020108;28;20889;-84
2023/06/01 09:34:28;;;;;;;9.83;7.27;;;;;;;25.36;39.44;157895.03;5006867;28;20881;-84
2023/06/01 09:36:56;;;;;;;7.03;6.27;;;;;;;25.64;39.09;157965.78;4990823;28;20545;-84
2023/06/01 09:39:25;;;;;;;7.27;6.57;;;;;;;25.78;38.39;158003.78;4988832;28;20442;-84
2023/06/01 09:41:52;;;;;;;6.73;6.00;;;;;;;26.16;38.94;158100.72;4989162;28;20496;-85
2023/06/01 09:44:26;;;;;;;7.73;6.60;;;;;;;26.01;38.46;158064.00;4988946;28;20437;-84
2023/06/01 09:46:54;;;;;;;7.03;6.33;;;;;;;25.74;39.31;157993.28;5003778;28;20453;-84
2023/06/01 09:49:24;;;;;;;11.87;6.33;;;;;;;25.67;38.95;157974.97;4971111;28;20500;-85
2023/06/01 09:51:51;;;;;;;12.07;5.83;;;;;;;25.64;39.10;157967.09;4988592;28;20452;-85
2023/06/01 09:54:28;;;;;;;6.97;6.30;;;;;;;25.90;38.10;158033.84;4987777;28;20708;-85
2023/06/01 09:56:54;;;;;;;6.90;6.00;;;;;;;25.93;38.75;158041.72;5003522;28;21078;-85
2023/06/01 09:59:22;;;;;;;7.77;6.63;;;;;;;26.03;39.35;158067.88;5019918;28;20429;-85
2023/06/01 10:01:52;;;;;;;8.70;6.90;;;;;;;26.03;38.62;158069.22;5003605;28;20485;-85
2023/06/01 10:04:22;;;;;;;7.40;6.70;;;;;;;25.43;39.37;157912.09;5003221;28;20433;-85
2023/06/01 10:06:51;;;;;;;7.30;6.60;;;;;;;25.12;39.01;157832.28;4984585;28;20877;-85
2023/06/01 10:09:19;;;;;;;7.30;6.60;;;;;;;25.33;39.50;157887.22;5002544;28;20856;-85
2023/06/01 10:11:48;;;;;;;6.97;6.23;;;;;;;25.82;39.86;158012.91;5004206;28;20491;-85
2023/06/01 10:14:15;;;;;;;8.13;7.30;;;;;;;26.17;39.31;158104.63;5011749;28;20483;-86
2023/06/01 10:16:42;;;;;;;7.50;6.50;;;;;;;26.22;38.61;158116.38;4994142;28;20815;-85
2023/06/01 10:19:09;;;;;;;6.97;6.27;;;;;;;25.59;38.57;157952.69;5010069;28;20486;-84
2023/06/01 10:21:36;;;;;;;9.73;7.17;;;;;;;25.27;39.31;157871.53;5026770;28;20440;-85
2023/06/01 10:24:03;;;;;;;7.90;7.10;;;;;;;25.19;40.21;157850.59;5009815;28;20475;-85
2023/06/01 10:26:31;;;;;;;6.90;6.03;;;;;;;25.29;40.36;157876.75;5011508;28;20440;-85
2023/06/01 10:29:00;;;;;;;7.80;6.67;;;;;;;25.51;39.35;157933.06;5022116;28;20451;-85
2023/06/01 10:31:37;;;;;;;7.10;6.43;;;;;;;25.95;38.56;158046.94;4999307;28;21015;-85
2023/06/01 10:34:03;;;;;;;6.83;5.43;;;;;;;25.70;35.16;157981.50;4990037;28;20496;-85
2023/06/01 10:37:07;;;;;;;7.00;5.93;;;;;;;25.32;36.00;157884.59;5004431;28;20453;-85
2023/06/01 10:39:35;;;;;;;7.07;6.37;;;;;;;24.98;35.83;157795.63;5011256;28;20485;-85
2023/06/01 10:42:35;;;;;;;6.90;5.83;;;;;;;24.99;36.41;157796.94;4993511;28;20464;-84
2023/06/01 10:45:04;;;;;;;6.90;6.30;;;;;;;24.88;37.03;157768.16;5003525;28;20476;-85
2023/06/01 10:47:45;;;;;;;7.50;6.13;;;;;;;25.03;38.36;157807.38;4990256;28;20442;-84
2023/06/01 10:50:16;;;;;;;6.13;5.53;;;;;;;25.44;36.11;157916.00;4990010;28;20441;-84
2023/06/01 10:52:42;;;;;;;7.30;6.43;;;;;;;25.45;38.25;157917.31;5006251;28;20448;-84
2023/06/01 10:55:31;;;;;;;6.50;5.90;;;;;;;25.48;38.47;157923.91;4989920;28;20510;-84
2023/06/01 10:58:21;;;;;;;6.37;5.80;;;;;;;25.49;38.57;157926.53;4985485;28;20437;-84
2023/06/01 11:00:49;;;;;;;9.13;6.30;;;;;;;25.56;38.79;157946.16;4991127;28;20469;-84
2023/06/01 11:03:16;;;;;;;6.37;5.77;;;;;;;25.61;38.22;157959.25;4990311;28;20504;-84
2023/06/01 11:05:47;;;;;;;14.80;6.33;;;;;;;25.62;38.08;157961.88;4998760;28;20527;-84
2023/06/01 11:09:00;;;;;;;7.47;6.40;;;;;;;25.35;37.66;157891.13;4993239;28;20456;-84
2023/06/01 11:11:58;;;;;;;6.87;6.17;;;;;;;25.34;37.73;157889.81;4985599;28;20448;-85
2023/06/01 11:14:25;;;;;;;6.80;6.10;;;;;;;25.19;38.14;157850.59;4992966;28;20835;-76
2023/06/01 11:16:55;;;;;;;11.17;6.57;;;;;;;25.06;38.80;157816.56;5010713;28;20467;-77
2023/06/01 11:19:24;;;;;;;6.77;6.03;;;;;;;24.86;39.04;157764.19;5024656;28;20842;-76
2023/06/01 11:21:55;;;;;;;7.37;6.00;;;;;;;25.00;38.35;157799.53;5008482;28;20567;-77
2023/06/01 11:24:23;;;;;;;6.87;6.17;;;;;;;25.15;38.24;157838.81;5008612;28;20850;-77
2023/06/01 11:26:51;;;;;;;6.60;6.00;;;;;;;25.38;37.59;157900.31;5010435;28;20484;-77
2023/06/01 11:29:20;;;;;;;6.50;5.90;;;;;;;25.62;38.13;157960.56;5009007;28;20982;-77
2023/06/01 11:31:48;;;;;;;8.43;6.67;;;;;;;25.56;36.84;157944.84;4989311;28;20466;-77
2023/06/01 11:34:18;;;;;;;6.63;5.73;;;;;;;25.20;36.97;157853.22;4990780;28;20919;-77